createdAt,value
2019-05-29T00:03:20.264Z,992.1
2019-05-29T00:08:20.244Z,992.2
2019-05-29T00:13:20.218Z,992.1
2019-05-29T00:18:20.330Z,992.1
2019-05-29T00:23:20.239Z,992.1
2019-05-29T00:28:20.251Z,992.2
2019-05-29T00:33:20.230Z,992
2019-05-29T00:38:20.220Z,992.1
2019-05-29T00:43:20.215Z,992.2
2019-05-29T00:48:20.189Z,992.2
2019-05-29T00:53:20.218Z,992.3
2019-05-29T00:58:20.218Z,992.2
2019-05-29T01:03:20.211Z,992.2
2019-05-29T01:08:20.466Z,992.2
2019-05-29T01:13:21.444Z,992.2
2019-05-29T01:18:22.324Z,992.3
2019-05-29T01:23:22.414Z,992.2
2019-05-29T01:28:21.428Z,992.3
2019-05-29T01:33:23.321Z,992.2
2019-05-29T01:38:21.601Z,992.3
2019-05-29T01:43:21.518Z,992.5
2019-05-29T01:48:21.660Z,992.7
2019-05-29T01:53:21.715Z,992.4
2019-05-29T01:58:22.039Z,992.1
2019-05-29T02:03:22.039Z,992.2
2019-05-29T02:08:22.153Z,992.2
2019-05-29T02:13:21.885Z,992.2
2019-05-29T02:18:22.954Z,992.3
2019-05-29T02:23:22.130Z,992.4
2019-05-29T02:28:22.580Z,992.4
2019-05-29T02:33:22.062Z,992.4
2019-05-29T02:38:22.864Z,992.2
2019-05-29T02:43:23.377Z,992.5
2019-05-29T02:48:23.143Z,992.2
2019-05-29T02:53:22.284Z,992.3
2019-05-29T02:58:23.540Z,992.3
2019-05-29T03:03:23.488Z,992.3
2019-05-29T03:08:22.206Z,992.3
2019-05-29T03:13:23.083Z,992.4
2019-05-29T03:18:23.758Z,992.4
2019-05-29T03:23:21.865Z,992.5
2019-05-29T03:28:21.860Z,992.5
2019-05-29T03:33:21.886Z,992
2019-05-29T03:38:21.843Z,992.1
2019-05-29T03:43:28.408Z,992.5
2019-05-29T03:48:27.759Z,992.7
2019-05-29T03:53:27.031Z,992.2
2019-05-29T03:58:26.595Z,992.5
2019-05-29T04:03:26.985Z,992.6
2019-05-29T04:08:27.366Z,992.7
2019-05-29T04:13:27.443Z,992.8
2019-05-29T04:18:27.572Z,992.7
2019-05-29T04:23:27.762Z,992.7
2019-05-29T04:28:27.888Z,992.9
2019-05-29T04:33:28.084Z,992.9
2019-05-29T04:38:28.513Z,992.7
2019-05-29T04:43:26.568Z,992.6
2019-05-29T04:48:26.570Z,992.6
2019-05-29T04:53:26.543Z,992.7
2019-05-29T04:58:26.553Z,992.8
2019-05-29T05:03:26.516Z,992.8
2019-05-29T05:08:26.502Z,992.8
2019-05-29T05:13:26.519Z,992.8
2019-05-29T05:18:26.526Z,992.9
2019-05-29T05:23:26.571Z,992.7
2019-05-29T05:28:26.494Z,992.8
2019-05-29T05:33:26.501Z,992.8
2019-05-29T05:38:26.564Z,992.9
2019-05-29T05:43:26.495Z,992.9
2019-05-29T05:48:26.495Z,992.9
2019-05-29T05:53:26.492Z,992.9
2019-05-29T05:58:26.459Z,992.9
2019-05-29T06:03:26.472Z,992.8
2019-05-29T06:08:26.476Z,992.9
2019-05-29T06:13:26.490Z,992.9
2019-05-29T06:18:26.489Z,992.8
2019-05-29T06:23:26.491Z,992.8
2019-05-29T06:28:26.474Z,992.7
2019-05-29T06:33:26.726Z,992.7
2019-05-29T06:38:26.718Z,992.6
2019-05-29T06:43:26.726Z,992.7
2019-05-29T06:48:41.156Z,992.6
2019-05-29T06:53:26.748Z,992.7
2019-05-29T06:58:26.702Z,992.8
2019-05-29T07:03:26.726Z,992.8
2019-05-29T07:08:37.909Z,992.8
2019-05-29T07:13:26.681Z,992.8
2019-05-29T07:18:26.678Z,992.8
2019-05-29T07:23:26.663Z,992.7
2019-05-29T07:28:26.674Z,992.8
2019-05-29T07:33:26.683Z,992.8
2019-05-29T07:38:26.668Z,992.8
2019-05-29T07:43:26.631Z,992.8
2019-05-29T07:48:26.663Z,992.7
2019-05-29T07:53:26.644Z,992.8
2019-05-29T07:58:26.625Z,992.7
2019-05-29T08:03:26.625Z,992.7
2019-05-29T08:08:26.639Z,992.7
2019-05-29T08:13:26.640Z,992.7
2019-05-29T08:18:26.645Z,992.7
2019-05-29T08:23:26.631Z,992.8
2019-05-29T08:28:26.603Z,992.6
2019-05-29T08:33:26.586Z,992.6
2019-05-29T08:38:26.591Z,992.5
2019-05-29T08:43:26.591Z,992.6
2019-05-29T08:48:26.657Z,992.5
2019-05-29T08:53:26.567Z,992.3
2019-05-29T08:58:26.848Z,992.2
2019-05-29T09:03:26.819Z,992.3
2019-05-29T09:08:26.821Z,992.2
2019-05-29T09:13:26.835Z,992.2
2019-05-29T09:18:27.073Z,992.2
2019-05-29T09:23:27.085Z,992.4
2019-05-29T09:28:27.067Z,992.2
2019-05-29T09:33:27.060Z,992.3
2019-05-29T09:38:27.064Z,992.5
2019-05-29T09:43:30.559Z,992.4
2019-05-29T09:48:28.708Z,992.3
2019-05-29T09:53:27.055Z,992.2
2019-05-29T09:58:27.086Z,992.1
2019-05-29T10:03:27.024Z,992.2
2019-05-29T10:08:27.019Z,992.1
2019-05-29T10:13:27.042Z,992.1
2019-05-29T10:18:32.231Z,991.8
2019-05-29T10:23:27.021Z,992.1
2019-05-29T10:28:27.030Z,992.2
2019-05-29T10:33:26.995Z,992.2
2019-05-29T10:38:27.033Z,992
2019-05-29T10:43:33.987Z,991.7
2019-05-29T10:48:27.018Z,991.8
2019-05-29T10:53:27.007Z,992.1
2019-05-29T10:58:26.996Z,991.9
2019-05-29T11:03:26.998Z,992.1
2019-05-29T11:08:27.020Z,992
2019-05-29T11:13:27.025Z,991.9
2019-05-29T11:18:26.989Z,992.1
2019-05-29T11:23:27.033Z,992.2
2019-05-29T11:28:26.975Z,992.3
2019-05-29T11:33:26.955Z,992.3
2019-05-29T11:38:26.979Z,992
2019-05-29T11:43:26.974Z,991.8
2019-05-29T11:48:26.943Z,991.8
2019-05-29T11:53:26.937Z,991.8
2019-05-29T11:58:30.878Z,991.8
2019-05-29T12:03:26.940Z,991.9
2019-05-29T12:08:26.995Z,992
2019-05-29T12:13:26.965Z,992
2019-05-29T12:18:26.956Z,992
2019-05-29T12:23:27.305Z,992
2019-05-29T12:28:26.949Z,991.8
2019-05-29T12:33:26.950Z,991.9
2019-05-29T12:38:26.939Z,992
2019-05-29T12:43:28.160Z,992
2019-05-29T12:48:26.921Z,992
2019-05-29T12:53:30.575Z,991.8
2019-05-29T12:58:26.946Z,992
2019-05-29T13:03:26.943Z,991.7
2019-05-29T13:08:26.898Z,991.6
2019-05-29T13:13:26.905Z,991.6
2019-05-29T13:18:26.897Z,991.8
2019-05-29T13:23:26.890Z,991.8
2019-05-29T13:28:26.901Z,992
2019-05-29T13:33:26.898Z,991.9
2019-05-29T13:38:27.060Z,992
2019-05-29T13:43:26.905Z,992
2019-05-29T13:48:26.857Z,992
2019-05-29T13:53:26.887Z,992
2019-05-29T13:58:27.109Z,992.1
2019-05-29T14:03:27.123Z,992.1
2019-05-29T14:08:27.132Z,992.3
2019-05-29T14:13:27.138Z,992.5
2019-05-29T14:18:27.101Z,992.5
2019-05-29T14:23:27.115Z,992.5
2019-05-29T14:28:27.085Z,992.6
2019-05-29T14:33:33.174Z,992.6
2019-05-29T14:38:28.222Z,992.6
2019-05-29T14:43:27.150Z,992.6
2019-05-29T14:48:27.095Z,992.6
2019-05-29T14:53:27.084Z,992.6
2019-05-29T14:58:27.091Z,992.7
2019-05-29T15:03:27.091Z,992.6
2019-05-29T15:08:27.375Z,992.6
2019-05-29T15:13:27.314Z,992.6
2019-05-29T15:18:27.327Z,992.5
2019-05-29T15:23:27.316Z,992.5
2019-05-29T15:28:27.311Z,992.4
2019-05-29T15:33:27.305Z,992.4
2019-05-29T15:38:28.544Z,992.4
2019-05-29T15:43:27.323Z,992.2
2019-05-29T15:48:27.266Z,992.2
2019-05-29T15:53:27.299Z,992.2
2019-05-29T15:58:27.326Z,992.2
2019-05-29T16:03:27.415Z,992.2
2019-05-29T16:08:32.657Z,992
2019-05-29T16:13:30.954Z,992
2019-05-29T16:18:31.425Z,991.9
2019-05-29T16:23:35.763Z,991.9
2019-05-29T16:28:31.443Z,991.8
2019-05-29T16:33:31.414Z,991.8
2019-05-29T16:38:31.406Z,991.9
2019-05-29T16:43:31.426Z,991.8
2019-05-29T16:48:31.465Z,991.8
2019-05-29T16:53:31.990Z,991.8
2019-05-29T16:58:31.991Z,991.8
2019-05-29T17:03:31.973Z,991.8
2019-05-29T17:08:31.944Z,991.7
2019-05-29T17:13:31.984Z,991.7
2019-05-29T17:18:31.929Z,991.6
2019-05-29T17:23:31.923Z,991.6
2019-05-29T18:00:20.420Z,991.6
2019-05-29T18:05:18.941Z,991.6
2019-05-29T18:10:20.772Z,991.7
2019-05-29T18:15:19.502Z,991.8
2019-05-29T18:20:19.622Z,991.8
2019-05-29T18:25:19.941Z,991.9
2019-05-29T18:30:19.860Z,992
2019-05-29T18:35:19.100Z,992
2019-05-29T18:40:24.362Z,992.2
2019-05-29T18:45:24.663Z,992.2
2019-05-29T18:50:25.563Z,992.2
2019-05-29T18:55:23.066Z,992.2
2019-05-29T19:00:23.317Z,992.2
2019-05-29T19:05:23.560Z,992.3
2019-05-29T19:10:23.762Z,992.2
2019-05-29T19:15:23.917Z,992.1
2019-05-29T19:20:24.202Z,992.2
2019-05-29T19:25:24.555Z,992.2
2019-05-29T19:30:29.369Z,992.2
2019-05-29T19:35:23.608Z,992.3
2019-05-29T19:40:24.003Z,992.3
2019-05-29T19:45:26.543Z,992.4
2019-05-29T19:50:24.580Z,992.5
2019-05-29T19:55:23.502Z,992.4
2019-05-29T20:00:28.374Z,992.5
2019-05-29T20:05:28.634Z,992.4
2019-05-29T20:10:29.205Z,992.4
2019-05-29T20:15:28.312Z,992.3
2019-05-29T20:20:28.318Z,992.4
2019-05-29T20:25:28.808Z,992.5
2019-05-29T20:30:28.270Z,992.6
2019-05-29T20:35:28.288Z,992.6
2019-05-29T20:40:28.290Z,992.6
2019-05-29T20:45:29.551Z,992.5
2019-05-29T20:50:28.272Z,992.5
2019-05-29T20:55:28.260Z,992.6
2019-05-29T21:00:28.325Z,992.7
2019-05-29T21:05:28.275Z,992.7
2019-05-29T21:10:28.277Z,992.8
2019-05-29T21:15:28.271Z,992.8
2019-05-29T21:20:29.770Z,992.8
2019-05-29T21:25:29.755Z,992.9
2019-05-29T21:30:29.737Z,992.8
2019-05-29T21:35:30.799Z,992.9
2019-05-29T21:40:31.192Z,992.9
2019-05-29T21:45:29.751Z,992.9
2019-05-29T21:50:29.723Z,992.9
2019-05-29T21:55:29.766Z,993
2019-05-29T22:00:29.766Z,993
2019-05-29T22:05:29.776Z,993
2019-05-29T22:10:29.752Z,993
2019-05-29T22:15:29.724Z,993
2019-05-29T22:20:29.763Z,993.1
2019-05-29T22:25:29.734Z,993.1
2019-05-29T22:30:29.721Z,993.2
2019-05-29T22:35:29.729Z,993.1
2019-05-29T22:40:29.688Z,993.1
2019-05-29T22:45:29.730Z,993.1
2019-05-29T22:50:29.696Z,993
2019-05-29T22:55:29.706Z,993.1
2019-05-29T23:00:29.703Z,993.2
2019-05-29T23:05:29.699Z,993.2
2019-05-29T23:10:29.705Z,993.2
2019-05-29T23:15:29.660Z,993.1
2019-05-29T23:20:29.693Z,993.2
2019-05-29T23:25:29.654Z,993.2
2019-05-29T23:30:30.514Z,993.1
2019-05-29T23:35:29.638Z,993
2019-05-29T23:40:29.653Z,993
2019-05-29T23:45:29.634Z,992.9
2019-05-29T23:50:29.643Z,993
2019-05-29T23:55:29.661Z,993
